createdAt,value
2022-11-23T00:00:20.842Z,8.88
2022-11-23T00:02:48.637Z,8.88
2022-11-23T00:05:16.310Z,8.88
2022-11-23T00:07:44.045Z,8.89
2022-11-23T00:10:13.435Z,8.90
2022-11-23T00:12:41.092Z,8.88
2022-11-23T00:15:09.457Z,8.89
2022-11-23T00:17:37.066Z,8.91
2022-11-23T00:20:05.296Z,8.91
2022-11-23T00:22:32.955Z,8.93
2022-11-23T00:25:00.741Z,8.94
2022-11-23T00:27:29.830Z,8.92
2022-11-23T00:29:57.466Z,8.93
2022-11-23T00:32:25.127Z,8.96
2022-11-23T00:34:52.767Z,8.95
2022-11-23T00:37:20.427Z,8.95
2022-11-23T00:39:48.072Z,8.94
2022-11-23T00:42:15.748Z,8.94
2022-11-23T00:44:44.824Z,8.94
2022-11-23T00:47:12.474Z,8.90
2022-11-23T00:49:40.129Z,8.96
2022-11-23T00:52:07.821Z,8.98
2022-11-23T00:54:35.426Z,8.96
2022-11-23T00:57:03.073Z,9.01
2022-11-23T00:59:31.130Z,9.00
2022-11-23T01:02:00.586Z,9.00
2022-11-23T01:04:29.165Z,9.01
2022-11-23T01:06:58.068Z,8.98
2022-11-23T01:09:26.862Z,9.02
2022-11-23T01:11:55.203Z,9.04
2022-11-23T01:14:23.296Z,9.04
2022-11-23T01:16:51.065Z,9.04
2022-11-23T01:19:21.485Z,9.03
2022-11-23T01:21:49.448Z,9.03
2022-11-23T01:24:18.795Z,9.02
2022-11-23T01:26:46.727Z,9.08
2022-11-23T01:29:14.703Z,9.10
2022-11-23T01:31:46.601Z,9.10
2022-11-23T01:34:15.258Z,9.10
2022-11-23T01:36:45.238Z,9.11
2022-11-23T01:39:13.543Z,9.11
2022-11-23T01:41:43.360Z,9.11
2022-11-23T01:44:30.750Z,9.14
2022-11-23T01:46:59.972Z,9.12
2022-11-23T01:49:29.293Z,9.14
2022-11-23T01:52:00.847Z,9.12
2022-11-23T01:54:33.122Z,9.14
2022-11-23T01:57:03.516Z,9.13
2022-11-23T01:59:32.151Z,9.14
2022-11-23T02:02:00.666Z,9.17
2022-11-23T02:04:31.146Z,9.17
2022-11-23T02:07:01.486Z,9.14
2022-11-23T02:09:30.919Z,9.17
2022-11-23T02:11:59.009Z,9.18
2022-11-23T02:14:27.067Z,9.25
2022-11-23T02:16:54.757Z,9.24
2022-11-23T02:19:34.342Z,9.24
2022-11-23T02:22:03.762Z,9.25
2022-11-23T02:24:35.480Z,9.24
2022-11-23T02:27:06.945Z,9.25
2022-11-23T02:29:34.864Z,9.29
2022-11-23T02:32:02.579Z,9.30
2022-11-23T02:34:30.352Z,9.29
2022-11-23T02:36:58.797Z,9.32
2022-11-23T02:39:30.612Z,9.30
2022-11-23T02:41:59.453Z,9.31
2022-11-23T02:44:33.688Z,9.29
2022-11-23T02:47:01.474Z,9.29
2022-11-23T02:49:29.463Z,9.30
2022-11-23T02:51:57.369Z,9.33
2022-11-23T02:54:24.992Z,9.34
2022-11-23T02:56:52.689Z,9.33
2022-11-23T02:59:20.659Z,9.33
2022-11-23T03:01:50.336Z,9.32
2022-11-23T03:04:20.764Z,9.33
2022-11-23T03:06:50.889Z,9.33
2022-11-23T03:09:18.729Z,9.34
2022-11-23T03:11:46.368Z,9.34
2022-11-23T03:14:14.133Z,9.34
2022-11-23T03:16:41.825Z,9.36
2022-11-23T03:19:10.893Z,9.35
2022-11-23T03:21:38.658Z,9.29
2022-11-23T03:24:06.961Z,9.37
2022-11-23T03:26:34.672Z,9.39
2022-11-23T03:29:02.336Z,9.39
2022-11-23T03:31:29.999Z,9.39
2022-11-23T03:33:57.764Z,9.39
2022-11-23T03:36:26.834Z,9.37
2022-11-23T03:38:54.496Z,9.39
2022-11-23T03:41:22.209Z,9.39
2022-11-23T03:43:49.867Z,9.39
2022-11-23T03:46:17.591Z,9.37
2022-11-23T03:48:45.306Z,9.36
2022-11-23T03:51:13.001Z,9.35
2022-11-23T03:53:42.098Z,9.38
2022-11-23T03:56:09.985Z,9.40
2022-11-23T03:58:37.700Z,9.37
2022-11-23T04:01:05.378Z,9.40
2022-11-23T04:03:33.344Z,9.40
2022-11-23T04:06:01.069Z,9.40
2022-11-23T04:08:28.698Z,9.39
2022-11-23T04:10:59.133Z,9.38
2022-11-23T04:13:27.231Z,9.40
2022-11-23T04:15:54.874Z,9.40
2022-11-23T04:18:22.643Z,9.37
2022-11-23T04:20:50.363Z,9.38
2022-11-23T04:23:18.049Z,9.36
2022-11-23T04:25:46.474Z,9.37
2022-11-23T04:28:15.521Z,9.35
2022-11-23T04:30:43.209Z,9.34
2022-11-23T04:33:10.916Z,9.31
2022-11-23T04:35:38.617Z,9.35
2022-11-23T04:38:06.346Z,9.35
2022-11-23T04:40:34.193Z,9.36
2022-11-23T04:43:02.310Z,9.28
2022-11-23T04:45:31.403Z,9.30
2022-11-23T04:47:59.093Z,9.31
2022-11-23T04:50:26.749Z,9.25
2022-11-23T04:52:54.544Z,9.33
2022-11-23T04:55:22.283Z,9.33
2022-11-23T04:57:50.255Z,9.33
2022-11-23T05:00:18.568Z,9.35
2022-11-23T05:02:47.641Z,9.36
2022-11-23T05:05:15.448Z,9.35
2022-11-23T05:07:43.179Z,9.36
2022-11-23T05:10:11.229Z,9.36
2022-11-23T05:12:38.936Z,9.38
2022-11-23T05:15:07.468Z,9.39
2022-11-23T05:17:35.350Z,9.39
2022-11-23T05:20:05.175Z,9.40
2022-11-23T05:22:32.942Z,9.40
2022-11-23T05:25:00.805Z,9.40
2022-11-23T05:27:28.428Z,9.41
2022-11-23T05:29:56.093Z,9.39
2022-11-23T05:32:23.730Z,9.39
2022-11-23T05:34:51.472Z,9.40
2022-11-23T05:37:20.471Z,9.39
2022-11-23T05:39:48.087Z,9.40
2022-11-23T05:42:15.820Z,9.37
2022-11-23T05:44:43.480Z,9.37
2022-11-23T05:47:11.137Z,9.34
2022-11-23T05:49:38.788Z,9.36
2022-11-23T05:52:06.780Z,9.40
2022-11-23T05:54:36.229Z,9.36
2022-11-23T05:57:03.926Z,9.38
2022-11-23T05:59:32.037Z,9.39
2022-11-23T06:01:59.850Z,9.37
2022-11-23T06:04:27.605Z,9.42
2022-11-23T06:06:57.295Z,9.42
2022-11-23T06:09:24.958Z,9.39
2022-11-23T06:11:53.992Z,9.41
2022-11-23T06:14:21.676Z,9.42
2022-11-23T06:16:49.556Z,9.44
2022-11-23T06:19:17.316Z,9.43
2022-11-23T06:21:50.134Z,9.44
2022-11-23T06:24:18.099Z,9.46
2022-11-23T06:26:45.732Z,9.44
2022-11-23T06:29:16.208Z,9.44
2022-11-23T06:31:43.833Z,9.41
2022-11-23T06:34:11.541Z,9.42
2022-11-23T06:36:39.221Z,9.41
2022-11-23T06:39:07.086Z,9.40
2022-11-23T06:41:34.781Z,9.42
2022-11-23T06:44:02.562Z,9.41
2022-11-23T06:46:31.643Z,9.43
2022-11-23T06:48:59.432Z,9.42
2022-11-23T06:51:27.080Z,9.44
2022-11-23T06:53:55.173Z,9.43
2022-11-23T06:56:23.231Z,9.43
2022-11-23T06:58:50.933Z,9.45
2022-11-23T07:01:18.571Z,9.44
2022-11-23T07:03:47.757Z,9.43
2022-11-23T07:06:15.500Z,9.43
2022-11-23T07:08:44.267Z,9.46
2022-11-23T07:11:12.510Z,9.45
2022-11-23T07:13:40.450Z,9.44
2022-11-23T07:16:08.724Z,9.45
2022-11-23T07:18:36.381Z,9.43
2022-11-23T07:21:05.396Z,9.44
2022-11-23T07:23:33.092Z,9.44
2022-11-23T07:26:00.702Z,9.46
2022-11-23T07:28:28.318Z,9.42
2022-11-23T07:30:56.029Z,9.44
2022-11-23T07:33:23.636Z,9.47
2022-11-23T07:35:51.397Z,9.48
2022-11-23T07:38:20.353Z,9.50
2022-11-23T07:40:50.306Z,9.48
2022-11-23T07:43:17.919Z,9.48
2022-11-23T07:45:45.581Z,9.48
2022-11-23T07:48:13.565Z,9.50
2022-11-23T07:50:41.205Z,9.47
2022-11-23T07:53:09.166Z,9.50
2022-11-23T07:55:38.163Z,9.52
2022-11-23T07:58:06.482Z,9.52
2022-11-23T08:00:34.123Z,9.51
2022-11-23T08:03:26.568Z,9.54
2022-11-23T08:05:49.433Z,9.54
2022-11-23T08:08:17.078Z,9.53
2022-11-23T08:10:51.417Z,9.53
2022-11-23T08:13:20.883Z,9.55
2022-11-23T08:15:53.932Z,9.56
2022-11-23T08:18:23.056Z,9.58
2022-11-23T08:20:50.895Z,9.57
2022-11-23T08:23:18.696Z,9.52
2022-11-23T08:25:48.162Z,9.54
2022-11-23T08:28:15.874Z,9.51
2022-11-23T08:30:43.608Z,9.53
2022-11-23T08:33:11.303Z,9.52
2022-11-23T08:35:40.008Z,9.52
2022-11-23T08:38:09.027Z,9.53
2022-11-23T08:40:37.129Z,9.56
2022-11-23T08:43:06.589Z,9.57
2022-11-23T08:45:34.518Z,9.59
2022-11-23T08:48:02.503Z,9.57
2022-11-23T08:50:30.602Z,9.57
2022-11-23T08:52:58.986Z,9.57
2022-11-23T08:55:27.568Z,9.59
2022-11-23T08:57:56.124Z,9.61
2022-11-23T09:00:25.873Z,9.63
2022-11-23T09:02:53.582Z,9.65
2022-11-23T09:05:21.813Z,9.74
2022-11-23T09:07:49.587Z,9.77
2022-11-23T09:10:19.106Z,9.80
2022-11-23T09:12:47.190Z,9.81
2022-11-23T09:15:15.014Z,9.89
2022-11-23T09:17:44.531Z,9.87
2022-11-23T09:20:13.105Z,9.86
2022-11-23T09:22:40.729Z,9.85
2022-11-23T09:25:10.289Z,9.89
2022-11-23T09:27:38.065Z,9.90
2022-11-23T09:30:06.743Z,9.89
2022-11-23T09:32:34.397Z,9.92
2022-11-23T09:35:03.454Z,9.92
2022-11-23T09:37:31.165Z,9.93
2022-11-23T09:39:58.799Z,9.94
2022-11-23T09:42:38.550Z,9.93
2022-11-23T09:45:20.244Z,9.98
2022-11-23T09:48:00.942Z,9.99
2022-11-23T09:50:35.519Z,10.11
2022-11-23T09:53:07.008Z,10.20
2022-11-23T09:55:38.588Z,10.24
2022-11-23T09:58:07.381Z,10.29
2022-11-23T10:00:38.917Z,10.33
2022-11-23T10:03:06.577Z,10.34
2022-11-23T10:05:39.003Z,10.37
2022-11-23T10:08:12.918Z,10.37
2022-11-23T10:10:44.376Z,10.42
2022-11-23T10:14:01.101Z,10.48
2022-11-23T10:17:19.743Z,10.54
2022-11-23T10:19:58.375Z,10.56
2022-11-23T10:22:30.458Z,10.59
2022-11-23T10:24:58.053Z,10.63
2022-11-23T10:27:26.338Z,10.67
2022-11-23T10:29:56.405Z,10.71
2022-11-23T10:32:31.976Z,10.74
2022-11-23T10:35:04.328Z,10.77
2022-11-23T10:39:45.515Z,10.78
2022-11-23T10:42:20.138Z,10.80
2022-11-23T10:44:48.726Z,10.84
2022-11-23T10:47:35.091Z,10.86
2022-11-23T10:50:03.912Z,10.87
2022-11-23T10:52:32.883Z,10.88
2022-11-23T10:55:03.902Z,10.86
2022-11-23T10:57:33.842Z,10.88
2022-11-23T11:00:04.618Z,10.89
2022-11-23T11:02:39.545Z,10.89
2022-11-23T11:05:53.440Z,10.84
2022-11-23T11:08:16.923Z,10.86
2022-11-23T11:10:50.118Z,10.90
2022-11-23T11:13:29.850Z,10.95
2022-11-23T11:15:59.588Z,10.96
2022-11-23T11:18:32.380Z,10.99
2022-11-23T11:21:03.284Z,11.03
2022-11-23T11:23:32.079Z,11.07
2022-11-23T11:26:09.744Z,11.10
2022-11-23T11:28:40.314Z,11.13
2022-11-23T11:31:34.895Z,11.24
2022-11-23T11:34:09.287Z,11.26
2022-11-23T11:36:40.554Z,11.29
2022-11-23T11:39:20.709Z,11.38
2022-11-23T11:41:51.068Z,11.44
2022-11-23T11:44:21.540Z,11.45
2022-11-23T11:46:53.872Z,11.47
2022-11-23T11:49:56.317Z,11.44
2022-11-23T11:52:27.265Z,11.47
2022-11-23T11:54:57.632Z,11.47
2022-11-23T11:57:29.448Z,11.47
2022-11-23T12:02:36.154Z,11.50
2022-11-23T12:05:12.799Z,11.54
2022-11-23T12:07:45.522Z,11.61
2022-11-23T12:10:17.388Z,11.58
2022-11-23T12:12:45.263Z,11.58
2022-11-23T12:15:47.640Z,11.58
2022-11-23T12:18:26.951Z,11.61
2022-11-23T12:20:58.772Z,11.63
2022-11-23T12:23:34.863Z,11.59
2022-11-23T12:26:13.693Z,11.50
2022-11-23T12:29:00.199Z,11.44
2022-11-23T12:31:40.779Z,11.40
2022-11-23T12:34:17.744Z,11.41
2022-11-23T12:37:00.804Z,11.36
2022-11-23T12:39:43.354Z,11.32
2022-11-23T12:42:13.935Z,11.31
2022-11-23T12:44:54.451Z,11.35
2022-11-23T12:47:29.942Z,11.35
2022-11-23T12:50:04.675Z,11.38
2022-11-23T12:52:47.243Z,11.41
2022-11-23T12:55:20.504Z,11.43
2022-11-23T12:57:51.401Z,11.37
2022-11-23T13:00:20.877Z,11.33
2022-11-23T13:03:13.605Z,11.28
2022-11-23T13:10:14.146Z,11.37
2022-11-23T13:13:14.042Z,11.36
2022-11-23T13:16:02.605Z,11.31
2022-11-23T13:18:42.898Z,11.29
2022-11-23T13:21:18.926Z,11.31
2022-11-23T13:23:46.728Z,11.32
2022-11-23T13:26:17.759Z,11.38
2022-11-23T13:28:45.957Z,11.38
2022-11-23T13:31:27.764Z,11.40
2022-11-23T13:33:56.746Z,11.42
2022-11-23T13:37:15.292Z,11.40
2022-11-23T13:40:04.082Z,11.37
2022-11-23T13:42:34.983Z,11.32
2022-11-23T13:45:23.507Z,11.34
2022-11-23T13:48:34.342Z,11.34
2022-11-23T13:51:02.357Z,11.30
2022-11-23T13:53:32.516Z,11.27
2022-11-23T13:56:18.816Z,11.23
2022-11-23T13:58:55.684Z,11.18
2022-11-23T14:02:04.372Z,11.14
2022-11-23T14:04:33.068Z,11.10
2022-11-23T14:07:03.666Z,11.07
2022-11-23T14:09:35.656Z,10.96
2022-11-23T14:12:08.556Z,11.02
2022-11-23T14:14:48.369Z,10.96
2022-11-23T14:22:02.404Z,10.85
2022-11-23T14:26:29.775Z,10.83
2022-11-23T14:29:24.216Z,10.80
2022-11-23T14:32:00.969Z,10.79
2022-11-23T14:34:35.723Z,10.76
2022-11-23T14:37:09.441Z,10.74
2022-11-23T14:39:55.404Z,10.72
2022-11-23T14:42:26.492Z,10.69
2022-11-23T14:44:54.669Z,10.58
2022-11-23T14:47:30.372Z,10.63
2022-11-23T14:49:58.700Z,10.61
2022-11-23T14:52:28.524Z,10.56
2022-11-23T14:54:57.644Z,10.53
2022-11-23T14:57:29.158Z,10.51
2022-11-23T14:59:58.606Z,10.49
2022-11-23T15:02:32.506Z,10.47
2022-11-23T15:05:07.767Z,10.51
2022-11-23T15:07:44.831Z,10.49
2022-11-23T15:10:22.740Z,10.50
2022-11-23T15:12:51.804Z,10.48
2022-11-23T15:15:21.081Z,10.51
2022-11-23T15:17:52.950Z,10.50
2022-11-23T15:21:22.601Z,10.50
2022-11-23T15:23:54.296Z,10.49
2022-11-23T15:26:46.118Z,10.47
2022-11-23T15:29:33.519Z,10.51
2022-11-23T15:34:50.546Z,10.49
2022-11-23T15:37:20.011Z,10.49
2022-11-23T15:39:48.408Z,10.49
2022-11-23T15:42:18.599Z,10.44
2022-11-23T15:44:51.227Z,10.36
2022-11-23T15:47:22.852Z,10.30
2022-11-23T15:49:51.040Z,10.23
2022-11-23T15:53:55.488Z,10.17
2022-11-23T15:56:55.357Z,10.11
2022-11-23T15:59:31.585Z,10.12
2022-11-23T16:02:00.380Z,10.05
2022-11-23T16:04:36.504Z,10.03
2022-11-23T16:07:16.538Z,9.98
2022-11-23T16:09:52.358Z,10.00
2022-11-23T16:12:25.636Z,9.99
2022-11-23T16:14:54.128Z,9.95
2022-11-23T16:17:23.707Z,9.93
2022-11-23T16:19:52.743Z,9.92
2022-11-23T16:22:24.914Z,9.89
2022-11-23T16:24:55.495Z,9.85
2022-11-23T16:27:25.833Z,9.89
2022-11-23T16:29:57.586Z,9.88
2022-11-23T16:32:30.785Z,9.83
2022-11-23T16:35:00.499Z,9.87
2022-11-23T16:37:28.934Z,9.86
2022-11-23T16:39:56.969Z,9.89
2022-11-23T16:42:27.092Z,9.86
2022-11-23T16:44:54.800Z,9.88
2022-11-23T16:47:25.056Z,9.87
2022-11-23T16:49:53.636Z,9.88
2022-11-23T16:52:22.626Z,9.90
2022-11-23T16:54:50.496Z,9.90
2022-11-23T16:57:21.597Z,9.90
2022-11-23T16:59:50.980Z,9.88
2022-11-23T17:02:19.307Z,9.84
2022-11-23T17:04:47.128Z,9.83
2022-11-23T17:07:15.038Z,9.82
2022-11-23T17:12:00.059Z,9.82
2022-11-23T17:14:29.740Z,9.73
2022-11-23T17:17:02.233Z,9.78
2022-11-23T17:19:30.347Z,9.78
2022-11-23T17:21:58.446Z,9.77
2022-11-23T17:24:26.084Z,9.76
2022-11-23T17:26:54.267Z,9.74
2022-11-23T17:29:24.119Z,9.74
2022-11-23T17:31:52.103Z,9.75
2022-11-23T17:34:19.782Z,9.75
2022-11-23T17:36:48.621Z,9.69
2022-11-23T17:39:20.201Z,9.74
2022-11-23T17:41:49.135Z,9.71
2022-11-23T17:44:17.566Z,9.72
2022-11-23T17:46:47.203Z,9.71
2022-11-23T17:49:16.990Z,9.74
2022-11-23T17:51:44.621Z,9.75
2022-11-23T17:54:12.345Z,9.75
2022-11-23T17:56:40.053Z,9.73
2022-11-23T17:59:08.085Z,9.74
2022-11-23T18:01:35.947Z,9.74
2022-11-23T18:04:05.308Z,9.74
2022-11-23T18:06:33.048Z,9.73
2022-11-23T18:09:00.721Z,9.71
2022-11-23T18:11:28.824Z,9.71
2022-11-23T18:13:56.516Z,9.70
2022-11-23T18:16:24.354Z,9.71
2022-11-23T18:18:52.273Z,9.69
2022-11-23T18:21:21.323Z,9.70
2022-11-23T18:23:49.007Z,9.72
2022-11-23T18:26:21.306Z,9.72
2022-11-23T18:28:49.440Z,9.72
2022-11-23T18:31:17.155Z,9.72
2022-11-23T18:33:45.064Z,9.72
2022-11-23T18:36:13.172Z,9.68
2022-11-23T18:38:44.753Z,9.65
2022-11-23T18:41:13.177Z,9.61
2022-11-23T18:43:40.886Z,9.64
2022-11-23T18:46:10.210Z,9.63
2022-11-23T18:48:38.524Z,9.61
2022-11-23T18:51:11.525Z,9.61
2022-11-23T18:53:39.146Z,9.61
2022-11-23T18:56:09.947Z,9.61
2022-11-23T18:58:39.360Z,9.61
2022-11-23T19:01:12.660Z,9.60
2022-11-23T19:03:41.884Z,9.61
2022-11-23T19:06:11.875Z,9.59
2022-11-23T19:08:40.068Z,9.63
2022-11-23T19:11:12.781Z,9.64
2022-11-23T19:13:40.919Z,9.62
2022-11-23T19:16:10.538Z,9.63
2022-11-23T19:18:38.452Z,9.65
2022-11-23T19:21:13.682Z,9.63
2022-11-23T19:23:41.450Z,9.63
2022-11-23T19:26:10.601Z,9.67
2022-11-23T19:28:38.649Z,9.65
2022-11-23T19:31:14.007Z,9.67
2022-11-23T19:33:42.013Z,9.65
2022-11-23T19:36:11.541Z,9.69
2022-11-23T19:38:39.567Z,9.67
2022-11-23T19:41:07.728Z,9.67
2022-11-23T19:43:37.209Z,9.68
2022-11-23T19:46:07.241Z,9.68
2022-11-23T19:48:35.267Z,9.70
2022-11-23T19:51:04.625Z,9.71
2022-11-23T19:53:33.951Z,9.71
2022-11-23T19:56:03.104Z,9.71
2022-11-23T19:58:35.339Z,9.74
2022-11-23T20:01:06.412Z,9.72
2022-11-23T20:03:35.705Z,9.75
2022-11-23T20:06:06.009Z,9.75
2022-11-23T20:08:33.843Z,9.75
2022-11-23T20:11:07.535Z,9.70
2022-11-23T20:13:36.027Z,9.64
2022-11-23T20:16:06.625Z,9.77
2022-11-23T20:18:34.595Z,9.75
2022-11-23T20:21:02.868Z,9.78
2022-11-23T20:23:30.835Z,9.77
2022-11-23T20:25:59.056Z,9.78
2022-11-23T20:28:27.109Z,9.76
2022-11-23T20:30:54.860Z,9.76
2022-11-23T20:33:23.940Z,9.77
2022-11-23T20:35:51.888Z,9.78
2022-11-23T20:38:19.690Z,9.77
2022-11-23T20:40:47.458Z,9.75
2022-11-23T20:43:15.482Z,9.74
2022-11-23T20:45:43.184Z,9.64
2022-11-23T20:48:10.864Z,9.68
2022-11-23T20:50:39.972Z,9.68
2022-11-23T20:53:07.747Z,9.68
2022-11-23T20:55:36.569Z,9.75
2022-11-23T20:58:04.329Z,9.74
2022-11-23T21:00:32.143Z,9.74
2022-11-23T21:02:59.886Z,9.84
2022-11-23T21:05:27.744Z,9.82
2022-11-23T21:13:03.683Z,9.79
2022-11-23T21:15:31.367Z,9.79
2022-11-23T21:17:58.959Z,9.80
2022-11-23T21:20:26.647Z,9.77
2022-11-23T21:22:54.304Z,9.73
2022-11-23T21:25:21.925Z,9.70
2022-11-23T21:27:50.985Z,9.69
2022-11-23T21:30:18.915Z,9.67
2022-11-23T21:32:50.482Z,9.64
2022-11-23T21:35:18.149Z,9.63
2022-11-23T21:37:45.781Z,9.62
2022-11-23T21:40:13.601Z,9.59
2022-11-23T21:42:41.226Z,9.57
2022-11-23T21:45:10.926Z,9.53
2022-11-23T21:47:38.617Z,9.50
2022-11-23T21:50:06.951Z,9.46
2022-11-23T21:52:34.585Z,9.45
2022-11-23T21:55:02.257Z,9.42
2022-11-23T21:57:29.960Z,9.41
2022-11-23T21:59:57.796Z,9.41
2022-11-23T22:02:27.081Z,9.41
2022-11-23T22:04:55.013Z,9.41
2022-11-23T22:07:22.807Z,9.38
2022-11-23T22:09:50.712Z,9.34
2022-11-23T22:12:18.501Z,9.32
2022-11-23T22:14:46.239Z,9.31
2022-11-23T22:17:14.002Z,9.29
2022-11-23T22:19:43.149Z,9.26
2022-11-23T22:22:10.901Z,9.24
2022-11-23T22:24:38.623Z,9.12
2022-11-23T22:27:06.400Z,9.19
2022-11-23T22:29:34.206Z,9.15
2022-11-23T22:32:02.304Z,9.19
2022-11-23T22:34:33.523Z,9.19
2022-11-23T22:37:07.247Z,9.22
2022-11-23T22:39:38.215Z,9.19
2022-11-23T22:42:06.204Z,9.19
2022-11-23T22:44:34.267Z,9.20
2022-11-23T22:47:02.206Z,9.19
2022-11-23T22:49:29.982Z,9.19
2022-11-23T22:51:58.000Z,9.18
2022-11-23T22:54:28.778Z,9.14
2022-11-23T22:56:56.550Z,9.13
2022-11-23T22:59:24.263Z,9.10
2022-11-23T23:01:52.029Z,9.12
2022-11-23T23:04:19.766Z,9.11
2022-11-23T23:06:48.885Z,9.10
2022-11-23T23:09:16.920Z,9.12
2022-11-23T23:11:46.090Z,9.11
2022-11-23T23:14:13.847Z,9.09
2022-11-23T23:16:41.634Z,9.09
2022-11-23T23:19:09.581Z,9.09
2022-11-23T23:21:37.332Z,9.10
2022-11-23T23:24:05.703Z,9.09
2022-11-23T23:26:33.503Z,9.10
2022-11-23T23:29:02.713Z,9.07
2022-11-23T23:31:30.944Z,9.11
2022-11-23T23:34:01.014Z,9.09
2022-11-23T23:36:29.559Z,9.04
2022-11-23T23:38:57.814Z,9.07
2022-11-23T23:41:25.581Z,9.03
2022-11-23T23:43:53.538Z,9.08
2022-11-23T23:46:22.882Z,9.07
2022-11-23T23:48:50.933Z,9.04
2022-11-23T23:51:20.815Z,8.98
2022-11-23T23:53:48.897Z,9.04
2022-11-23T23:56:18.040Z,9.03
2022-11-23T23:58:46.284Z,9.04
